EGNS Airport Information

Runway Information
Runway 03 Length 3934 ft width 151 ft
Elevation 23 ft Threshold 312 ft Heading 28
Runway 21 Length 3934 ft Width 151 ft
Elevation 52 ft Threshold 0 ft Heading 208
Runway 08 Length 5751 ft width 151 ft
Elevation 29 ft Threshold 951 ft Heading 78
Runway 26 Length 5751 ft Width 151 ft
Elevation 32 ft Threshold 459 ft Heading 258
Runway 17 Length 2963 ft width 89 ft
Elevation 0 ft Threshold 0 ft Heading 175
Runway 35 Length 2963 ft Width 89 ft
Elevation 18 ft Threshold 0 ft Heading 355
Airport Frequencies
Type APP Name RONALDSWAY Frequency 120.85 MHZ
Type ATIS Name ATIS Frequency 123.875 MHZ
Type TWR Name RONALDSWAY Frequency 118.9 MHZ
Airport Navaids
Type NDB Name Carnane Frequency 367 KHZ
Type VOR-DME Name Isle Of Man Frequency 112200 KHZ
Airport Weather Information & NOTAM
ADDS - METARS form results

(1609 UTC 14 October 2019)
Data provider http://aviationweather.gov/metar/data/
 
METAR text: EGNS 141550Z 11014KT 9999 SCT010 13/11 Q1004 NOSIG
Conditions at: EGNS (ISLE OF MAN/RONA, GB) observed 1550 UTC 14 October 2019
Temperature: 13.0°C (55°F)
Dewpoint: 11.0°C (52°F) [RH = 88%]
Pressure (altimeter): 29.65 inches Hg (1004.0 mb)
Winds: from the ESE (110 degrees) at 16 MPH (14 knots; 7.2 m/s)
Visibility: 6 or more miles (10+ km)
Ceiling: at least 12,000 feet AGL
Clouds: scattered clouds at 1000 feet AGL
Weather: no significant weather observed at this time

METAR text: EGNS 141520Z 11015KT 9999 SCT010 13/11 Q1004 NOSIG
Conditions at: EGNS (ISLE OF MAN/RONA, GB) observed 1520 UTC 14 October 2019
Temperature: 13.0°C (55°F)
Dewpoint: 11.0°C (52°F) [RH = 88%]
Pressure (altimeter): 29.65 inches Hg (1004.0 mb)
Winds: from the ESE (110 degrees) at 17 MPH (15 knots; 7.7 m/s)
Visibility: 6 or more miles (10+ km)
Ceiling: at least 12,000 feet AGL
Clouds: scattered clouds at 1000 feet AGL
Weather: no significant weather observed at this time

Forecast for: EGNS (ISLE OF MAN/RONA, GB)
Text: TAF EGNS 141400Z 1415/1421 12015KT 9999 FEW010 SCT025
Forecast period: 1500 to 2100 UTC 14 October 2019
Forecast type: FROM: standard forecast or significant change
Winds: from the ESE (120 degrees) at 17 MPH (15 knots; 7.7 m/s)
Visibility: 6 or more miles 10+ km)
Ceiling: at least 12,000 feet AGL
Clouds: few clouds at 1000 feet AGL
scattered clouds at 2500 feet AGL
Weather: no significant weather forecast for this period